sensor_id;sensor_type;location;lat;lon;timestamp;pressure;altitude;pressure_sealevel;temperature
63689;BMP280;54895;40.928;14.480;2023-09-18T00:01:19;101528.38;;;26.98
63689;BMP280;54895;40.928;14.480;2023-09-18T00:03:46;101516.81;;;26.99
63689;BMP280;54895;40.928;14.480;2023-09-18T00:06:12;101528.53;;;27.02
63689;BMP280;54895;40.928;14.480;2023-09-18T00:08:39;101523.56;;;27.12
63689;BMP280;54895;40.928;14.480;2023-09-18T00:11:05;101530.34;;;27.11
63689;BMP280;54895;40.928;14.480;2023-09-18T00:13:33;101537.72;;;27.08
63689;BMP280;54895;40.928;14.480;2023-09-18T00:15:59;101544.84;;;27.29
63689;BMP280;54895;40.928;14.480;2023-09-18T00:18:26;101525.88;;;27.33
63689;BMP280;54895;40.928;14.480;2023-09-18T00:20:52;101524.31;;;26.99
63689;BMP280;54895;40.928;14.480;2023-09-18T00:23:18;101517.03;;;26.90
63689;BMP280;54895;40.928;14.480;2023-09-18T00:25:44;101504.91;;;26.93
63689;BMP280;54895;40.928;14.480;2023-09-18T00:28:11;101499.38;;;26.77
63689;BMP280;54895;40.928;14.480;2023-09-18T00:30:38;101506.97;;;26.79
63689;BMP280;54895;40.928;14.480;2023-09-18T00:33:09;101500.41;;;26.70
63689;BMP280;54895;40.928;14.480;2023-09-18T00:35:35;101498.63;;;26.61
63689;BMP280;54895;40.928;14.480;2023-09-18T00:38:01;101499.56;;;26.52
63689;BMP280;54895;40.928;14.480;2023-09-18T00:40:29;101490.84;;;26.56
63689;BMP280;54895;40.928;14.480;2023-09-18T00:42:55;101495.75;;;27.02
63689;BMP280;54895;40.928;14.480;2023-09-18T00:45:22;101501.63;;;26.81
63689;BMP280;54895;40.928;14.480;2023-09-18T00:47:48;101501.13;;;26.71
63689;BMP280;54895;40.928;14.480;2023-09-18T00:50:15;101497.94;;;26.61
63689;BMP280;54895;40.928;14.480;2023-09-18T00:52:41;101486.41;;;26.49
63689;BMP280;54895;40.928;14.480;2023-09-18T00:55:08;101499.66;;;26.54
63689;BMP280;54895;40.928;14.480;2023-09-18T00:57:35;101505.22;;;26.43
63689;BMP280;54895;40.928;14.480;2023-09-18T01:00:04;101501.50;;;26.36
63689;BMP280;54895;40.928;14.480;2023-09-18T01:02:33;101490.50;;;26.21
63689;BMP280;54895;40.928;14.480;2023-09-18T01:04:59;101486.41;;;26.49
63689;BMP280;54895;40.928;14.480;2023-09-18T01:07:26;101489.91;;;26.09
63689;BMP280;54895;40.928;14.480;2023-09-18T01:09:54;101486.31;;;25.53
63689;BMP280;54895;40.928;14.480;2023-09-18T01:12:32;101488.78;;;25.35
63689;BMP280;54895;40.928;14.480;2023-09-18T01:15:19;101480.31;;;25.05
63689;BMP280;54895;40.928;14.480;2023-09-18T01:17:48;101481.97;;;25.23
63689;BMP280;54895;40.928;14.480;2023-09-18T01:20:14;101477.09;;;25.46
63689;BMP280;54895;40.928;14.480;2023-09-18T01:22:40;101481.00;;;25.68
63689;BMP280;54895;40.928;14.480;2023-09-18T01:25:07;101473.53;;;25.82
63689;BMP280;54895;40.928;14.480;2023-09-18T01:27:33;101465.97;;;25.94
63689;BMP280;54895;40.928;14.480;2023-09-18T01:30:00;101466.47;;;26.04
63689;BMP280;54895;40.928;14.480;2023-09-18T01:32:30;101467.06;;;26.16
63689;BMP280;54895;40.928;14.480;2023-09-18T01:34:59;101471.13;;;26.15
63689;BMP280;54895;40.928;14.480;2023-09-18T01:37:27;101475.16;;;26.14
63689;BMP280;54895;40.928;14.480;2023-09-18T01:39:55;101462.81;;;26.13
63689;BMP280;54895;40.928;14.480;2023-09-18T01:42:26;101471.13;;;26.15
63689;BMP280;54895;40.928;14.480;2023-09-18T01:44:53;101467.06;;;26.16
63689;BMP280;54895;40.928;14.480;2023-09-18T01:47:21;101470.00;;;26.07
63689;BMP280;54895;40.928;14.480;2023-09-18T01:49:49;101464.84;;;25.99
63689;BMP280;54895;40.928;14.480;2023-09-18T01:52:16;101467.88;;;26.05
63689;BMP280;54895;40.928;14.480;2023-09-18T01:54:42;101476.84;;;26.08
63689;BMP280;54895;40.928;14.480;2023-09-18T01:57:08;101470.69;;;26.07
63689;BMP280;54895;40.928;14.480;2023-09-18T01:59:35;101455.34;;;26.00
63689;BMP280;54895;40.928;14.480;2023-09-18T02:02:02;101446.63;;;26.17
63689;BMP280;54895;40.928;14.480;2023-09-18T02:04:33;101453.03;;;26.08
63689;BMP280;54895;40.928;14.480;2023-09-18T02:06:59;101452.00;;;26.02
63689;BMP280;54895;40.928;14.480;2023-09-18T02:09:25;101456.38;;;25.93
63689;BMP280;54895;40.928;14.480;2023-09-18T02:11:51;101451.09;;;25.97
63689;BMP280;54895;40.928;14.480;2023-09-18T02:14:18;101446.75;;;25.92
63689;BMP280;54895;40.928;14.480;2023-09-18T02:16:44;101460.50;;;26.08
63689;BMP280;54895;40.928;14.480;2023-09-18T02:19:13;101463.63;;;26.02
63689;BMP280;54895;40.928;14.480;2023-09-18T02:21:41;101462.22;;;26.01
63689;BMP280;54895;40.928;14.480;2023-09-18T02:24:07;101456.66;;;26.26
63689;BMP280;54895;40.928;14.480;2023-09-18T02:26:34;101454.75;;;26.15
63689;BMP280;54895;40.928;14.480;2023-09-18T02:29:06;101451.59;;;26.07
63689;BMP280;54895;40.928;14.480;2023-09-18T02:31:32;101447.47;;;26.06
63689;BMP280;54895;40.928;14.480;2023-09-18T02:33:59;101464.13;;;26.12
63689;BMP280;54895;40.928;14.480;2023-09-18T02:36:25;101448.78;;;26.05
63689;BMP280;54895;40.928;14.480;2023-09-18T02:38:52;101448.28;;;25.95
63689;BMP280;54895;40.928;14.480;2023-09-18T02:41:18;101454.56;;;25.84
63689;BMP280;54895;40.928;14.480;2023-09-18T02:43:44;101459.28;;;25.84
63689;BMP280;54895;40.928;14.480;2023-09-18T02:46:10;101448.19;;;25.80
63689;BMP280;54895;40.928;14.480;2023-09-18T02:48:37;101447.66;;;25.83
63689;BMP280;54895;40.928;14.480;2023-09-18T02:51:03;101457.66;;;25.79
63689;BMP280;54895;40.928;14.480;2023-09-18T02:53:30;101451.91;;;25.86
63689;BMP280;54895;40.928;14.480;2023-09-18T02:55:59;101442.28;;;25.72
63689;BMP280;54895;40.928;14.480;2023-09-18T02:58:25;101448.94;;;25.55
63689;BMP280;54895;40.928;14.480;2023-09-18T03:00:55;101436.72;;;25.56
63689;BMP280;54895;40.928;14.480;2023-09-18T03:03:23;101444.69;;;25.52
63689;BMP280;54895;40.928;14.480;2023-09-18T03:05:51;101443.44;;;25.80
63689;BMP280;54895;40.928;14.480;2023-09-18T03:08:17;101453.63;;;25.80
63689;BMP280;54895;40.928;14.480;2023-09-18T03:10:44;101453.44;;;25.89
63689;BMP280;54895;40.928;14.480;2023-09-18T03:13:14;101453.75;;;25.68
63689;BMP280;54895;40.928;14.480;2023-09-18T03:15:44;101454.09;;;25.49
63689;BMP280;54895;40.928;14.480;2023-09-18T03:18:11;101459.66;;;25.51
63689;BMP280;54895;40.928;14.480;2023-09-18T03:20:38;101461.88;;;25.55
63689;BMP280;54895;40.928;14.480;2023-09-18T03:23:04;101463.72;;;25.64
63689;BMP280;54895;40.928;14.480;2023-09-18T03:25:31;101457.03;;;25.53
63689;BMP280;54895;40.928;14.480;2023-09-18T03:27:57;101451.56;;;25.53
63689;BMP280;54895;40.928;14.480;2023-09-18T03:30:28;101443.63;;;25.57
63689;BMP280;54895;40.928;14.480;2023-09-18T03:32:55;101437.72;;;25.49
63689;BMP280;54895;40.928;14.480;2023-09-18T03:35:23;101439.34;;;25.41
63689;BMP280;54895;40.928;14.480;2023-09-18T03:37:52;101440.94;;;25.32
63689;BMP280;54895;40.928;14.480;2023-09-18T03:40:20;101432.44;;;25.26
63689;BMP280;54895;40.928;14.480;2023-09-18T03:42:47;101446.72;;;25.38
63689;BMP280;54895;40.928;14.480;2023-09-18T03:45:13;101439.03;;;25.35
63689;BMP280;54895;40.928;14.480;2023-09-18T03:47:41;101441.28;;;25.38
63689;BMP280;54895;40.928;14.480;2023-09-18T03:50:09;101437.03;;;25.35
63689;BMP280;54895;40.928;14.480;2023-09-18T03:52:37;101444.19;;;25.42
63689;BMP280;54895;40.928;14.480;2023-09-18T03:55:05;101447.78;;;25.33
63689;BMP280;54895;40.928;14.480;2023-09-18T03:57:32;101454.34;;;25.28
63689;BMP280;54895;40.928;14.480;2023-09-18T03:59:58;101455.06;;;25.29
63689;BMP280;54895;40.928;14.480;2023-09-18T04:02:25;101449.22;;;25.34
63689;BMP280;54895;40.928;14.480;2023-09-18T04:04:55;101443.53;;;25.30
63689;BMP280;54895;40.928;14.480;2023-09-18T04:07:21;101453.09;;;25.56
63689;BMP280;54895;40.928;14.480;2023-09-18T04:09:48;101449.38;;;25.63
63689;BMP280;54895;40.928;14.480;2023-09-18T04:12:14;101452.63;;;25.21
63689;BMP280;54895;40.928;14.480;2023-09-18T04:14:41;101443.91;;;25.11
63689;BMP280;54895;40.928;14.480;2023-09-18T04:17:07;101436.31;;;25.10
63689;BMP280;54895;40.928;14.480;2023-09-18T04:19:33;101433.59;;;25.10
63689;BMP280;54895;40.928;14.480;2023-09-18T04:22:00;101418.84;;;25.02
63689;BMP280;54895;40.928;14.480;2023-09-18T04:24:26;101422.66;;;24.97
63689;BMP280;54895;40.928;14.480;2023-09-18T04:26:52;101433.00;;;25.11
63689;BMP280;54895;40.928;14.480;2023-09-18T04:29:19;101428.69;;;25.20
63689;BMP280;54895;40.928;14.480;2023-09-18T04:31:47;101431.03;;;25.25
63689;BMP280;54895;40.928;14.480;2023-09-18T04:34:14;101439.00;;;25.21
63689;BMP280;54895;40.928;14.480;2023-09-18T04:36:40;101435.56;;;25.21
63689;BMP280;54895;40.928;14.480;2023-09-18T04:39:08;101424.59;;;25.32
63689;BMP280;54895;40.928;14.480;2023-09-18T04:41:36;101423.25;;;25.33
63689;BMP280;54895;40.928;14.480;2023-09-18T04:44:05;101430.31;;;25.25
63689;BMP280;54895;40.928;14.480;2023-09-18T04:46:33;101433.91;;;25.16
63689;BMP280;54895;40.928;14.480;2023-09-18T04:49:02;101439.81;;;25.24
63689;BMP280;54895;40.928;14.480;2023-09-18T04:51:32;101447.78;;;25.33
63689;BMP280;54895;40.928;14.480;2023-09-18T04:53:59;101445.25;;;25.24
63689;BMP280;54895;40.928;14.480;2023-09-18T04:56:26;101442.78;;;25.41
63689;BMP280;54895;40.928;14.480;2023-09-18T04:58:53;101432.44;;;25.26
63689;BMP280;54895;40.928;14.480;2023-09-18T05:01:20;101434.84;;;25.20
63689;BMP280;54895;40.928;14.480;2023-09-18T05:03:48;101433.63;;;25.23
63689;BMP280;54895;40.928;14.480;2023-09-18T05:06:15;101441.72;;;25.21
63689;BMP280;54895;40.928;14.480;2023-09-18T05:08:44;101445.19;;;25.35
63689;BMP280;54895;40.928;14.480;2023-09-18T05:11:10;101449.44;;;25.38
63689;BMP280;54895;40.928;14.480;2023-09-18T05:13:37;101450.34;;;25.43
63689;BMP280;54895;40.928;14.480;2023-09-18T05:16:03;101457.94;;;25.44
63689;BMP280;54895;40.928;14.480;2023-09-18T05:18:29;101453.69;;;25.55
63689;BMP280;54895;40.928;14.480;2023-09-18T05:20:56;101450.41;;;25.70
63689;BMP280;54895;40.928;14.480;2023-09-18T05:23:22;101456.25;;;25.78
63689;BMP280;54895;40.928;14.480;2023-09-18T05:25:49;101458.81;;;26.01
63689;BMP280;54895;40.928;14.480;2023-09-18T05:28:15;101462.22;;;26.28
63689;BMP280;54895;40.928;14.480;2023-09-18T05:30:41;101458.47;;;26.35
63689;BMP280;54895;40.928;14.480;2023-09-18T05:33:08;101463.78;;;26.33
63689;BMP280;54895;40.928;14.480;2023-09-18T05:35:39;101458.84;;;26.29
63689;BMP280;54895;40.928;14.480;2023-09-18T05:38:06;101459.97;;;26.38
63689;BMP280;54895;40.928;14.480;2023-09-18T05:40:32;101469.00;;;26.56
63689;BMP280;54895;40.928;14.480;2023-09-18T05:42:59;101475.06;;;26.68
63689;BMP280;54895;40.928;14.480;2023-09-18T05:45:25;101467.25;;;26.76
63689;BMP280;54895;40.928;14.480;2023-09-18T05:47:53;101467.34;;;26.78
63689;BMP280;54895;40.928;14.480;2023-09-18T05:50:20;101460.53;;;27.08
63689;BMP280;54895;40.928;14.480;2023-09-18T05:52:47;101462.72;;;27.27
63689;BMP280;54895;40.928;14.480;2023-09-18T05:55:15;101459.03;;;27.36
63689;BMP280;54895;40.928;14.480;2023-09-18T05:57:41;101460.72;;;27.42
63689;BMP280;54895;40.928;14.480;2023-09-18T06:00:08;101462.41;;;27.49
63689;BMP280;54895;40.928;14.480;2023-09-18T06:02:39;101459.66;;;27.65
63689;BMP280;54895;40.928;14.480;2023-09-18T06:05:06;101454.19;;;27.49
63689;BMP280;54895;40.928;14.480;2023-09-18T06:07:33;101448.22;;;27.53
63689;BMP280;54895;40.928;14.480;2023-09-18T06:09:59;101453.50;;;27.64
63689;BMP280;54895;40.928;14.480;2023-09-18T06:12:25;101449.38;;;27.81
63689;BMP280;54895;40.928;14.480;2023-09-18T06:14:52;101446.72;;;27.98
63689;BMP280;54895;40.928;14.480;2023-09-18T06:17:18;101451.56;;;28.17
63689;BMP280;54895;40.928;14.480;2023-09-18T06:19:45;101454.19;;;28.31
63689;BMP280;54895;40.928;14.480;2023-09-18T06:22:12;101467.50;;;28.38
63689;BMP280;54895;40.928;14.480;2023-09-18T06:24:39;101465.22;;;28.50
63689;BMP280;54895;40.928;14.480;2023-09-18T06:27:05;101463.03;;;28.64
63689;BMP280;54895;40.928;14.480;2023-09-18T06:29:32;101465.88;;;28.85
63689;BMP280;54895;40.928;14.480;2023-09-18T06:32:00;101470.53;;;28.81
63689;BMP280;54895;40.928;14.480;2023-09-18T06:34:26;101482.31;;;29.03
63689;BMP280;54895;40.928;14.480;2023-09-18T06:36:54;101483.91;;;29.10
63689;BMP280;54895;40.928;14.480;2023-09-18T06:39:20;101482.53;;;29.28
63689;BMP280;54895;40.928;14.480;2023-09-18T06:41:48;101480.88;;;29.39
63689;BMP280;54895;40.928;14.480;2023-09-18T06:44:14;101483.41;;;29.71
63689;BMP280;54895;40.928;14.480;2023-09-18T06:46:41;101474.09;;;29.80
63689;BMP280;54895;40.928;14.480;2023-09-18T06:49:07;101474.50;;;29.92
63689;BMP280;54895;40.928;14.480;2023-09-18T06:51:33;101470.94;;;30.09
63689;BMP280;54895;40.928;14.480;2023-09-18T06:54:00;101482.34;;;30.23
63689;BMP280;54895;40.928;14.480;2023-09-18T06:56:28;101484.03;;;30.32
63689;BMP280;54895;40.928;14.480;2023-09-18T06:58:55;101496.97;;;30.51
63689;BMP280;54895;40.928;14.480;2023-09-18T07:01:22;101493.25;;;30.64
63689;BMP280;54895;40.928;14.480;2023-09-18T07:03:50;101505.41;;;30.80
63689;BMP280;54895;40.928;14.480;2023-09-18T07:06:17;101502.13;;;30.86
63689;BMP280;54895;40.928;14.480;2023-09-18T07:08:46;101501.88;;;31.01
63689;BMP280;54895;40.928;14.480;2023-09-18T07:11:16;101499.50;;;31.13
63689;BMP280;54895;40.928;14.480;2023-09-18T07:13:43;101515.91;;;31.35
63689;BMP280;54895;40.928;14.480;2023-09-18T07:16:10;101511.91;;;31.40
63689;BMP280;54895;40.928;14.480;2023-09-18T07:18:36;101518.09;;;31.65
63689;BMP280;54895;40.928;14.480;2023-09-18T07:21:02;101521.16;;;31.77
63689;BMP280;54895;40.928;14.480;2023-09-18T07:23:29;101529.16;;;31.95
63689;BMP280;54895;40.928;14.480;2023-09-18T07:25:55;101523.94;;;32.07
63689;BMP280;54895;40.928;14.480;2023-09-18T07:28:24;101519.63;;;32.27
63689;BMP280;54895;40.928;14.480;2023-09-18T07:30:51;101518.91;;;32.27
63689;BMP280;54895;40.928;14.480;2023-09-18T07:33:17;101530.31;;;32.42
63689;BMP280;54895;40.928;14.480;2023-09-18T07:35:50;101528.44;;;32.53
63689;BMP280;54895;40.928;14.480;2023-09-18T07:38:19;101526.13;;;32.73
63689;BMP280;54895;40.928;14.480;2023-09-18T07:40:46;101526.78;;;32.71
63689;BMP280;54895;40.928;14.480;2023-09-18T07:43:14;101535.25;;;32.81
63689;BMP280;54895;40.928;14.480;2023-09-18T07:45:40;101540.03;;;32.79
63689;BMP280;54895;40.928;14.480;2023-09-18T07:48:07;101540.53;;;32.69
63689;BMP280;54895;40.928;14.480;2023-09-18T07:50:34;101544.28;;;32.84
63689;BMP280;54895;40.928;14.480;2023-09-18T07:53:03;101546.25;;;32.79
63689;BMP280;54895;40.928;14.480;2023-09-18T07:55:30;101551.94;;;32.87
63689;BMP280;54895;40.928;14.480;2023-09-18T07:57:57;101539.06;;;32.98
63689;BMP280;54895;40.928;14.480;2023-09-18T08:00:25;101551.47;;;32.99
63689;BMP280;54895;40.928;14.480;2023-09-18T08:02:54;101546.22;;;33.11
63689;BMP280;54895;40.928;14.480;2023-09-18T08:05:24;101552.78;;;33.29
63689;BMP280;54895;40.928;14.480;2023-09-18T08:07:54;101552.88;;;33.33
63689;BMP280;54895;40.928;14.480;2023-09-18T08:10:23;101541.06;;;33.28
63689;BMP280;54895;40.928;14.480;2023-09-18T08:12:49;101561.56;;;33.20
63689;BMP280;54895;40.928;14.480;2023-09-18T08:15:19;101550.84;;;33.35
63689;BMP280;54895;40.928;14.480;2023-09-18T08:17:46;101561.59;;;33.22
63689;BMP280;54895;40.928;14.480;2023-09-18T08:20:15;101566.75;;;33.39
63689;BMP280;54895;40.928;14.480;2023-09-18T08:22:43;101570.00;;;33.27
63689;BMP280;54895;40.928;14.480;2023-09-18T08:25:11;101572.66;;;32.57
63689;BMP280;54895;40.928;14.480;2023-09-18T08:27:38;101572.66;;;32.57
63689;BMP280;54895;40.928;14.480;2023-09-18T08:30:14;101575.66;;;33.00
63689;BMP280;54895;40.928;14.480;2023-09-18T08:32:42;101557.38;;;33.17
63689;BMP280;54895;40.928;14.480;2023-09-18T08:35:08;101571.91;;;33.56
63689;BMP280;54895;40.928;14.480;2023-09-18T08:37:35;101578.66;;;33.47
63689;BMP280;54895;40.928;14.480;2023-09-18T08:40:01;101569.00;;;32.78
63689;BMP280;54895;40.928;14.480;2023-09-18T08:42:38;101556.59;;;33.12
63689;BMP280;54895;40.928;14.480;2023-09-18T08:45:09;101536.78;;;32.55
63689;BMP280;54895;40.928;14.480;2023-09-18T08:47:38;101553.66;;;33.39
63689;BMP280;54895;40.928;14.480;2023-09-18T08:50:08;101551.88;;;33.95
63689;BMP280;54895;40.928;14.480;2023-09-18T08:52:36;101543.56;;;34.38
63689;BMP280;54895;40.928;14.480;2023-09-18T08:55:04;101559.25;;;34.77
63689;BMP280;54895;40.928;14.480;2023-09-18T08:57:31;101563.69;;;35.02
63689;BMP280;54895;40.928;14.480;2023-09-18T08:59:58;101557.63;;;35.13
63689;BMP280;54895;40.928;14.480;2023-09-18T09:02:27;101560.44;;;35.19
63689;BMP280;54895;40.928;14.480;2023-09-18T09:04:53;101556.69;;;34.93
63689;BMP280;54895;40.928;14.480;2023-09-18T09:07:19;101555.97;;;34.90
63689;BMP280;54895;40.928;14.480;2023-09-18T09:09:46;101561.25;;;35.28
63689;BMP280;54895;40.928;14.480;2023-09-18T09:12:13;101543.47;;;35.55
63689;BMP280;54895;40.928;14.480;2023-09-18T09:14:39;101558.97;;;35.10
63689;BMP280;54895;40.928;14.480;2023-09-18T09:17:07;101560.69;;;34.29
63689;BMP280;54895;40.928;14.480;2023-09-18T09:19:35;101549.22;;;34.50
63689;BMP280;54895;40.928;14.480;2023-09-18T09:22:05;101550.88;;;34.69
63689;BMP280;54895;40.928;14.480;2023-09-18T09:24:42;101561.13;;;34.61
63689;BMP280;54895;40.928;14.480;2023-09-18T09:27:10;101556.19;;;34.06
63689;BMP280;54895;40.928;14.480;2023-09-18T09:29:36;101547.50;;;34.77
63689;BMP280;54895;40.928;14.480;2023-09-18T09:32:21;101543.91;;;35.25
63689;BMP280;54895;40.928;14.480;2023-09-18T09:34:48;101544.75;;;35.44
63689;BMP280;54895;40.928;14.480;2023-09-18T09:37:14;101525.28;;;35.32
63689;BMP280;54895;40.928;14.480;2023-09-18T09:39:51;101528.91;;;35.52
63689;BMP280;54895;40.928;14.480;2023-09-18T09:42:19;101520.72;;;35.66
63689;BMP280;54895;40.928;14.480;2023-09-18T09:45:04;101516.00;;;35.82
63689;BMP280;54895;40.928;14.480;2023-09-18T09:47:35;101520.94;;;35.98
63689;BMP280;54895;40.928;14.480;2023-09-18T09:50:12;101517.75;;;35.44
63689;BMP280;54895;40.928;14.480;2023-09-18T09:52:50;101534.53;;;34.89
63689;BMP280;54895;40.928;14.480;2023-09-18T10:00:25;101510.75;;;36.36
63689;BMP280;54895;40.928;14.480;2023-09-18T10:02:58;101504.56;;;36.49
63689;BMP280;54895;40.928;14.480;2023-09-18T10:05:27;101501.84;;;36.61
63689;BMP280;54895;40.928;14.480;2023-09-18T10:07:57;101499.81;;;36.94
63689;BMP280;54895;40.928;14.480;2023-09-18T10:10:36;101504.72;;;37.29
63689;BMP280;54895;40.928;14.480;2023-09-18T10:13:09;101500.53;;;37.34
63689;BMP280;54895;40.928;14.480;2023-09-18T10:15:37;101497.78;;;37.36
63689;BMP280;54895;40.928;14.480;2023-09-18T10:20:46;101490.72;;;37.92
63689;BMP280;54895;40.928;14.480;2023-09-18T10:23:27;101493.44;;;38.08
63689;BMP280;54895;40.928;14.480;2023-09-18T10:25:57;101489.16;;;38.39
63689;BMP280;54895;40.928;14.480;2023-09-18T10:28:26;101490.03;;;37.94
63689;BMP280;54895;40.928;14.480;2023-09-18T10:30:56;101479.72;;;37.43
63689;BMP280;54895;40.928;14.480;2023-09-18T10:33:23;101476.16;;;37.88
63689;BMP280;54895;40.928;14.480;2023-09-18T10:35:51;101464.97;;;38.06
63689;BMP280;54895;40.928;14.480;2023-09-18T10:38:19;101476.59;;;38.40
63689;BMP280;54895;40.928;14.480;2023-09-18T10:40:47;101475.22;;;38.43
63689;BMP280;54895;40.928;14.480;2023-09-18T10:43:15;101482.16;;;38.40
63689;BMP280;54895;40.928;14.480;2023-09-18T10:45:42;101479.22;;;38.66
63689;BMP280;54895;40.928;14.480;2023-09-18T10:48:11;101487.69;;;38.52
63689;BMP280;54895;40.928;14.480;2023-09-18T10:50:39;101481.78;;;37.32
63689;BMP280;54895;40.928;14.480;2023-09-18T10:53:07;101486.69;;;37.20
63689;BMP280;54895;40.928;14.480;2023-09-18T10:55:36;101481.78;;;37.40
63689;BMP280;54895;40.928;14.480;2023-09-18T10:58:04;101476.97;;;37.33
63689;BMP280;54895;40.928;14.480;2023-09-18T11:00:31;101471.25;;;37.96
63689;BMP280;54895;40.928;14.480;2023-09-18T11:03:13;101472.53;;;38.25
63689;BMP280;54895;40.928;14.480;2023-09-18T11:05:40;101471.28;;;37.81
63689;BMP280;54895;40.928;14.480;2023-09-18T11:11:21;101464.22;;;38.15
63689;BMP280;54895;40.928;14.480;2023-09-18T11:13:48;101474.06;;;37.89
63689;BMP280;54895;40.928;14.480;2023-09-18T11:18:47;101463.06;;;37.23
63689;BMP280;54895;40.928;14.480;2023-09-18T11:21:15;101463.06;;;37.23
63689;BMP280;54895;40.928;14.480;2023-09-18T11:23:44;101467.16;;;36.52
63689;BMP280;54895;40.928;14.480;2023-09-18T11:26:10;101454.75;;;37.27
63689;BMP280;54895;40.928;14.480;2023-09-18T11:28:37;101445.03;;;37.26
63689;BMP280;54895;40.928;14.480;2023-09-18T11:31:04;101458.91;;;37.04
63689;BMP280;54895;40.928;14.480;2023-09-18T11:33:36;101459.59;;;37.40
63689;BMP280;54895;40.928;14.480;2023-09-18T11:36:05;101467.19;;;36.82
63689;BMP280;54895;40.928;14.480;2023-09-18T11:38:51;101458.91;;;37.36
63689;BMP280;54895;40.928;14.480;2023-09-18T11:41:26;101464.44;;;37.44
63689;BMP280;54895;40.928;14.480;2023-09-18T11:46:40;101474.88;;;37.16
63689;BMP280;54895;40.928;14.480;2023-09-18T11:49:07;101467.22;;;36.90
63689;BMP280;54895;40.928;14.480;2023-09-18T11:51:37;101471.41;;;36.97
63689;BMP280;54895;40.928;14.480;2023-09-18T11:54:05;101461.00;;;37.02
63689;BMP280;54895;40.928;14.480;2023-09-18T11:56:35;101450.59;;;37.10
63689;BMP280;54895;40.928;14.480;2023-09-18T11:59:01;101447.78;;;37.12
63689;BMP280;54895;40.928;14.480;2023-09-18T12:01:31;101446.41;;;37.39
63689;BMP280;54895;40.928;14.480;2023-09-18T12:04:02;101444.28;;;37.57
63689;BMP280;54895;40.928;14.480;2023-09-18T12:06:36;101445.00;;;37.34
63689;BMP280;54895;40.928;14.480;2023-09-18T12:09:03;101453.34;;;36.96
63689;BMP280;54895;40.928;14.480;2023-09-18T12:11:30;101451.97;;;36.97
63689;BMP280;54895;40.928;14.480;2023-09-18T12:13:56;101460.97;;;36.82
63689;BMP280;54895;40.928;14.480;2023-09-18T12:16:24;101460.31;;;37.09
63689;BMP280;54895;40.928;14.480;2023-09-18T12:18:50;101467.25;;;37.26
63689;BMP280;54895;40.928;14.480;2023-09-18T12:21:17;101465.13;;;37.38
63689;BMP280;54895;40.928;14.480;2023-09-18T12:23:45;101454.75;;;37.31
63689;BMP280;54895;40.928;14.480;2023-09-18T12:26:13;101446.38;;;37.51
63689;BMP280;54895;40.928;14.480;2023-09-18T12:28:44;101450.50;;;37.62
63689;BMP280;54895;40.928;14.480;2023-09-18T12:31:14;101442.88;;;37.56
63689;BMP280;54895;40.928;14.480;2023-09-18T12:33:42;101451.25;;;37.20
63689;BMP280;54895;40.928;14.480;2023-09-18T12:36:13;101454.75;;;36.93
63689;BMP280;54895;40.928;14.480;2023-09-18T12:38:40;101454.75;;;37.13
63689;BMP280;54895;40.928;14.480;2023-09-18T12:41:06;101442.22;;;37.46
63689;BMP280;54895;40.928;14.480;2023-09-18T12:43:37;101456.16;;;37.20
63689;BMP280;54895;40.928;14.480;2023-09-18T12:46:07;101454.72;;;36.85
63689;BMP280;54895;40.928;14.480;2023-09-18T12:48:38;101445.00;;;36.98
63689;BMP280;54895;40.928;14.480;2023-09-18T12:51:05;101436.69;;;37.12
63689;BMP280;54895;40.928;14.480;2023-09-18T12:53:33;101446.41;;;37.03
63689;BMP280;54895;40.928;14.480;2023-09-18T12:58:33;101453.34;;;37.02
63689;BMP280;54895;40.928;14.480;2023-09-18T13:01:04;101456.09;;;36.70
63689;BMP280;54895;40.928;14.480;2023-09-18T13:03:35;101468.59;;;36.89
63689;BMP280;54895;40.928;14.480;2023-09-18T13:06:09;101454.75;;;36.93
63689;BMP280;54895;40.928;14.480;2023-09-18T13:08:36;101454.75;;;37.13
63689;BMP280;54895;40.928;14.480;2023-09-18T13:11:03;101446.41;;;37.15
63689;BMP280;54895;40.928;14.480;2023-09-18T13:13:29;101446.41;;;37.25
63689;BMP280;54895;40.928;14.480;2023-09-18T13:16:00;101451.25;;;36.97
63689;BMP280;54895;40.928;14.480;2023-09-18T13:18:27;101449.88;;;37.14
63689;BMP280;54895;40.928;14.480;2023-09-18T13:20:53;101455.44;;;37.18
63689;BMP280;54895;40.928;14.480;2023-09-18T13:23:20;101451.97;;;37.23
63689;BMP280;54895;40.928;14.480;2023-09-18T13:25:46;101456.13;;;37.30
63689;BMP280;54895;40.928;14.480;2023-09-18T13:28:14;101444.97;;;37.52
63689;BMP280;54895;40.928;14.480;2023-09-18T13:30:41;101438.00;;;37.59
63689;BMP280;54895;40.928;14.480;2023-09-18T13:33:10;101429.03;;;37.44
63689;BMP280;54895;40.928;14.480;2023-09-18T13:35:41;101431.00;;;37.82
63689;BMP280;54895;40.928;14.480;2023-09-18T13:38:09;101430.41;;;37.45
63689;BMP280;54895;40.928;14.480;2023-09-18T13:40:41;101425.56;;;37.30
63689;BMP280;54895;40.928;14.480;2023-09-18T13:43:08;101423.50;;;37.26
63689;BMP280;54895;40.928;14.480;2023-09-18T13:45:35;101417.25;;;37.12
63689;BMP280;54895;40.928;14.480;2023-09-18T13:48:02;101419.97;;;37.58
63689;BMP280;54895;40.928;14.480;2023-09-18T13:50:29;101421.31;;;37.77
63689;BMP280;54895;40.928;14.480;2023-09-18T13:52:55;101412.22;;;37.92
63689;BMP280;54895;40.928;14.480;2023-09-18T13:55:22;101410.19;;;37.77
63689;BMP280;54895;40.928;14.480;2023-09-18T13:57:48;101407.34;;;37.91
63689;BMP280;54895;40.928;14.480;2023-09-18T14:00:15;101410.13;;;37.92
63689;BMP280;54895;40.928;14.480;2023-09-18T14:02:41;101412.91;;;37.89
63689;BMP280;54895;40.928;14.480;2023-09-18T14:05:09;101401.88;;;37.69
63689;BMP280;54895;40.928;14.480;2023-09-18T14:07:36;101405.13;;;38.19